createdAt,value
2023-02-19T00:00:14.164Z,82.16
2023-02-19T00:02:45.372Z,82.17
2023-02-19T00:05:14.020Z,81.96
2023-02-19T00:07:43.885Z,82.12
2023-02-19T00:10:12.918Z,82.30
2023-02-19T00:12:42.886Z,82.48
2023-02-19T00:15:13.521Z,82.21
2023-02-19T00:17:42.340Z,82.77
2023-02-19T00:20:11.189Z,82.33
2023-02-19T00:22:40.498Z,82.46
2023-02-19T00:25:08.941Z,83.33
2023-02-19T00:27:37.392Z,83.07
2023-02-19T00:30:07.940Z,82.93
2023-02-19T00:32:37.735Z,83.90
2023-02-19T00:35:07.800Z,82.57
2023-02-19T00:37:38.527Z,83.17
2023-02-19T00:40:07.243Z,82.65
2023-02-19T00:42:38.948Z,83.13
2023-02-19T00:45:09.435Z,83.66
2023-02-19T00:47:47.144Z,83.98
2023-02-19T00:50:15.637Z,83.92
2023-02-19T00:52:45.717Z,84.15
2023-02-19T00:55:14.492Z,84.50
2023-02-19T00:57:43.880Z,84.76
2023-02-19T01:00:18.388Z,84.06
2023-02-19T01:02:47.198Z,84.90
2023-02-19T01:05:15.389Z,84.70
2023-02-19T01:07:45.198Z,84.86
2023-02-19T01:10:19.292Z,85.37
2023-02-19T01:12:49.318Z,85.73
2023-02-19T01:15:22.078Z,85.58
2023-02-19T01:17:51.019Z,85.30
2023-02-19T01:20:20.630Z,85.73
2023-02-19T01:22:50.149Z,86.24
2023-02-19T01:25:18.507Z,86.04
2023-02-19T01:27:48.687Z,86.70
2023-02-19T01:30:19.945Z,86.40
2023-02-19T01:32:50.080Z,86.62
2023-02-19T01:35:20.132Z,86.70
2023-02-19T01:37:51.005Z,86.68
2023-02-19T01:40:20.338Z,86.30
2023-02-19T01:42:50.315Z,86.03
2023-02-19T01:45:25.277Z,85.44
2023-02-19T01:48:09.645Z,86.27
2023-02-19T01:50:42.202Z,85.46
2023-02-19T01:53:14.633Z,85.65
2023-02-19T01:55:43.576Z,85.83
2023-02-19T01:58:12.296Z,85.99
2023-02-19T02:00:41.682Z,85.99
2023-02-19T02:03:11.085Z,85.57
2023-02-19T02:05:46.404Z,85.65
2023-02-19T02:08:32.881Z,84.84
2023-02-19T02:11:05.003Z,85.28
2023-02-19T02:13:42.464Z,85.62
2023-02-19T02:16:21.903Z,84.71
2023-02-19T02:18:57.974Z,85.31
2023-02-19T02:21:49.645Z,85.31
2023-02-19T02:24:36.272Z,85.35
2023-02-19T02:27:21.273Z,85.25
2023-02-19T02:30:07.712Z,85.57
2023-02-19T02:32:40.593Z,85.29
2023-02-19T02:35:10.933Z,84.66
2023-02-19T02:37:42.938Z,84.16
2023-02-19T02:40:13.123Z,84.65
2023-02-19T02:42:42.731Z,84.69
2023-02-19T02:45:38.914Z,85.11
2023-02-19T02:48:34.710Z,86.03
2023-02-19T02:51:08.257Z,86.08
2023-02-19T02:54:05.511Z,85.83
2023-02-19T02:56:37.010Z,84.40
2023-02-19T02:59:11.545Z,85.20
2023-02-19T03:02:01.564Z,85.23
2023-02-19T03:04:33.779Z,85.96
2023-02-19T03:07:13.113Z,85.77
2023-02-19T03:15:10.420Z,86.53
2023-02-19T03:18:00.797Z,86.62
2023-02-19T03:20:29.676Z,87.37
2023-02-19T03:23:01.482Z,87.21
2023-02-19T03:25:51.257Z,86.71
2023-02-19T03:28:44.711Z,86.09
2023-02-19T03:31:15.092Z,87.12
2023-02-19T03:33:44.987Z,87.13
2023-02-19T03:36:15.601Z,86.57
2023-02-19T03:38:52.160Z,86.51
2023-02-19T03:41:35.503Z,87.27
2023-02-19T03:44:13.883Z,88.21
2023-02-19T03:46:47.185Z,86.88
2023-02-19T03:49:23.951Z,88.31
2023-02-19T03:51:56.046Z,87.90
2023-02-19T03:54:30.636Z,86.58
2023-02-19T03:57:04.767Z,86.54
2023-02-19T03:59:37.003Z,86.18
2023-02-19T04:02:15.790Z,86.32
2023-02-19T04:04:47.398Z,86.97
2023-02-19T04:07:15.747Z,87.13
2023-02-19T04:09:49.048Z,87.35
2023-02-19T04:12:22.024Z,86.39
2023-02-19T04:14:55.579Z,87.77
2023-02-19T04:17:32.759Z,87.31
2023-02-19T04:20:05.388Z,87.70
2023-02-19T04:22:33.573Z,88.09
2023-02-19T04:25:04.030Z,88.13
2023-02-19T04:27:32.788Z,89.59
2023-02-19T04:30:01.625Z,88.93
2023-02-19T04:32:31.125Z,87.98
2023-02-19T04:35:01.241Z,87.92
2023-02-19T04:37:34.380Z,88.59
2023-02-19T04:40:02.497Z,88.45
2023-02-19T04:42:32.417Z,88.29
2023-02-19T04:45:02.955Z,88.65
2023-02-19T04:47:35.924Z,88.52
2023-02-19T04:50:04.405Z,87.87
2023-02-19T04:52:37.602Z,87.83
2023-02-19T04:55:10.509Z,88.40
2023-02-19T04:57:39.097Z,88.63
2023-02-19T05:00:11.821Z,88.05
2023-02-19T05:02:40.089Z,89.00
2023-02-19T05:05:11.425Z,89.34
2023-02-19T05:07:41.086Z,88.89
2023-02-19T05:10:13.116Z,89.44
2023-02-19T05:12:44.720Z,89.85
2023-02-19T05:15:13.295Z,90.16
2023-02-19T05:17:41.309Z,89.92
2023-02-19T05:20:10.327Z,89.73
2023-02-19T05:22:42.867Z,89.47
2023-02-19T05:25:12.684Z,89.56
2023-02-19T05:27:43.752Z,89.26
2023-02-19T05:30:14.959Z,89.44
2023-02-19T05:32:42.992Z,89.75
2023-02-19T05:35:11.426Z,89.36
2023-02-19T05:37:42.357Z,88.99
2023-02-19T05:40:13.250Z,89.15
2023-02-19T05:42:43.643Z,89.43
2023-02-19T05:45:12.675Z,89.69
2023-02-19T05:47:41.681Z,89.80
2023-02-19T05:50:09.643Z,89.64
2023-02-19T05:52:40.143Z,89.51
2023-02-19T05:55:09.592Z,89.56
2023-02-19T05:57:43.549Z,88.51
2023-02-19T06:00:13.884Z,88.52
2023-02-19T06:02:42.268Z,88.32
2023-02-19T06:05:10.991Z,88.43
2023-02-19T06:07:43.390Z,88.14
2023-02-19T06:10:12.638Z,88.44
2023-02-19T06:12:40.945Z,88.59
2023-02-19T06:15:09.860Z,88.86
2023-02-19T06:17:38.396Z,88.70
2023-02-19T06:20:07.280Z,88.22
2023-02-19T06:22:35.679Z,87.87
2023-02-19T06:25:07.899Z,88.23
2023-02-19T06:27:37.966Z,87.50
2023-02-19T06:30:06.626Z,86.83
2023-02-19T06:32:35.392Z,87.30
2023-02-19T06:35:03.765Z,86.35
2023-02-19T06:37:32.415Z,86.16
2023-02-19T06:40:02.811Z,86.73
2023-02-19T06:42:34.160Z,86.79
2023-02-19T06:45:04.370Z,86.98
2023-02-19T06:47:32.929Z,87.51
2023-02-19T06:50:01.970Z,87.11
2023-02-19T06:52:31.002Z,86.47
2023-02-19T06:55:01.711Z,86.09
2023-02-19T06:57:31.205Z,85.92
2023-02-19T07:00:00.656Z,85.16
2023-02-19T07:02:30.686Z,84.38
2023-02-19T07:04:58.561Z,84.00
2023-02-19T07:07:28.672Z,84.39
2023-02-19T07:09:57.377Z,84.54
2023-02-19T07:12:26.068Z,84.23
2023-02-19T07:14:55.131Z,83.35
2023-02-19T07:17:24.369Z,83.04
2023-02-19T07:19:52.814Z,82.68
2023-02-19T07:22:21.582Z,82.72
2023-02-19T07:24:49.768Z,83.32
2023-02-19T07:27:17.791Z,83.13
2023-02-19T07:29:46.386Z,81.77
2023-02-19T07:32:14.362Z,81.92
2023-02-19T07:34:44.273Z,81.18
2023-02-19T07:37:12.705Z,81.57
2023-02-19T07:39:40.898Z,81.12
2023-02-19T07:42:09.340Z,80.90
2023-02-19T07:44:39.887Z,81.97
2023-02-19T07:47:08.467Z,81.03
2023-02-19T07:49:36.549Z,81.72
2023-02-19T07:52:08.873Z,81.00
2023-02-19T07:54:37.426Z,79.11
2023-02-19T07:57:05.659Z,78.36
2023-02-19T07:59:33.895Z,79.17
2023-02-19T08:02:20.722Z,78.02
2023-02-19T08:04:51.384Z,75.28
2023-02-19T08:07:21.054Z,75.69
2023-02-19T08:10:09.914Z,73.80
2023-02-19T08:12:55.400Z,72.37
2023-02-19T08:15:26.114Z,69.50
2023-02-19T08:17:54.791Z,69.38
2023-02-19T08:20:24.089Z,70.63
2023-02-19T08:22:55.268Z,68.46
2023-02-19T08:25:23.523Z,66.87
2023-02-19T08:27:51.751Z,66.09
2023-02-19T08:30:19.910Z,64.81
2023-02-19T08:32:49.127Z,66.99
2023-02-19T08:35:20.762Z,66.24
2023-02-19T08:37:48.909Z,65.43
2023-02-19T08:40:19.050Z,65.62
2023-02-19T08:42:47.172Z,64.27
2023-02-19T08:45:16.420Z,64.44
2023-02-19T08:47:45.784Z,59.11
2023-02-19T08:50:14.335Z,59.15
2023-02-19T08:52:43.526Z,59.17
2023-02-19T08:55:12.994Z,60.68
2023-02-19T08:57:42.891Z,61.41
2023-02-19T09:00:14.013Z,60.25
2023-02-19T09:02:42.244Z,60.61
2023-02-19T09:05:13.483Z,66.96
2023-02-19T09:07:42.248Z,67.54
2023-02-19T09:10:11.928Z,70.65
2023-02-19T09:12:40.648Z,70.23
2023-02-19T09:15:10.351Z,70.64
2023-02-19T09:17:40.528Z,70.52
2023-02-19T09:20:10.999Z,71.07
2023-02-19T09:22:39.127Z,73.57
2023-02-19T09:25:16.399Z,73.80
2023-02-19T09:27:45.512Z,72.69
2023-02-19T09:30:20.289Z,72.87
2023-02-19T09:32:49.960Z,70.98
2023-02-19T09:35:21.671Z,69.51
2023-02-19T09:37:52.417Z,69.94
2023-02-19T09:40:26.534Z,72.34
2023-02-19T09:42:56.692Z,72.30
2023-02-19T09:45:29.225Z,73.53
2023-02-19T09:47:59.613Z,69.97
2023-02-19T09:50:38.797Z,69.84
2023-02-19T09:53:15.106Z,69.02
2023-02-19T09:55:44.858Z,69.78
2023-02-19T09:58:27.394Z,67.24
2023-02-19T10:00:58.266Z,67.56
2023-02-19T10:03:31.877Z,67.49
2023-02-19T10:06:03.713Z,61.74
2023-02-19T10:08:34.081Z,59.77
2023-02-19T10:11:04.067Z,63.42
2023-02-19T10:13:37.617Z,65.43
2023-02-19T10:16:11.177Z,64.99
2023-02-19T10:18:42.178Z,62.19
2023-02-19T10:21:15.854Z,59.23
2023-02-19T10:23:45.244Z,58.57
2023-02-19T10:26:14.129Z,60.22
2023-02-19T10:28:43.298Z,57.42
2023-02-19T10:31:21.386Z,59.42
2023-02-19T10:33:54.979Z,61.43
2023-02-19T10:36:29.855Z,60.70
2023-02-19T10:39:01.430Z,60.26
2023-02-19T10:41:30.611Z,59.04
2023-02-19T10:44:05.330Z,57.63
2023-02-19T10:46:38.008Z,59.32
2023-02-19T10:49:09.044Z,60.66
2023-02-19T10:51:40.035Z,60.02
2023-02-19T10:54:19.103Z,59.27
2023-02-19T10:56:49.379Z,59.94
2023-02-19T10:59:25.518Z,55.86
2023-02-19T11:02:02.534Z,52.76
2023-02-19T11:04:38.186Z,55.78
2023-02-19T11:07:18.994Z,56.22
2023-02-19T11:09:54.664Z,57.47
2023-02-19T11:12:31.931Z,57.67
2023-02-19T11:15:09.400Z,55.37
2023-02-19T11:17:40.118Z,58.40
2023-02-19T11:20:14.587Z,56.49
2023-02-19T11:22:49.313Z,58.46
2023-02-19T11:25:21.601Z,58.88
2023-02-19T11:27:57.766Z,58.37
2023-02-19T11:30:39.890Z,59.32
2023-02-19T11:33:27.293Z,60.12
2023-02-19T11:36:01.741Z,58.11
2023-02-19T11:38:29.883Z,56.50
2023-02-19T11:41:06.076Z,53.43
2023-02-19T11:43:47.796Z,49.99
2023-02-19T11:46:23.840Z,52.13
2023-02-19T11:48:56.457Z,52.32
2023-02-19T11:51:34.419Z,54.12
2023-02-19T11:54:17.236Z,49.94
2023-02-19T11:56:47.956Z,46.61
2023-02-19T11:59:24.290Z,44.71
2023-02-19T12:02:05.210Z,49.42
2023-02-19T12:05:10.378Z,48.62
2023-02-19T12:08:04.247Z,47.25
2023-02-19T12:10:38.271Z,49.37
2023-02-19T12:13:15.594Z,45.90
2023-02-19T12:16:06.926Z,47.53
2023-02-19T12:19:05.045Z,45.00
2023-02-19T12:21:50.785Z,43.70
2023-02-19T12:24:37.178Z,47.03
2023-02-19T12:27:18.309Z,48.51
2023-02-19T12:29:57.000Z,49.33
2023-02-19T12:32:43.549Z,50.11
2023-02-19T12:35:32.314Z,47.20
2023-02-19T12:38:08.804Z,46.08
2023-02-19T12:40:54.874Z,44.64
2023-02-19T12:43:25.172Z,45.11
2023-02-19T12:45:57.834Z,43.77
2023-02-19T12:48:33.237Z,45.29
2023-02-19T12:51:07.301Z,47.27
2023-02-19T12:53:43.625Z,44.59
2023-02-19T12:56:17.612Z,43.60
2023-02-19T12:58:49.730Z,46.77
2023-02-19T13:01:24.940Z,44.15
2023-02-19T13:04:19.004Z,44.22
2023-02-19T13:06:53.519Z,45.54
2023-02-19T13:09:29.309Z,46.02
2023-02-19T13:12:00.593Z,47.98
2023-02-19T13:14:31.774Z,49.08
2023-02-19T13:17:02.779Z,47.24
2023-02-19T13:19:32.302Z,47.46
2023-02-19T13:22:34.176Z,47.38
2023-02-19T13:25:07.362Z,47.70
2023-02-19T13:28:06.876Z,47.00
2023-02-19T13:30:47.395Z,47.37
2023-02-19T13:33:26.952Z,48.39
2023-02-19T13:36:08.466Z,49.54
2023-02-19T13:38:46.589Z,51.68
2023-02-19T13:41:22.814Z,51.10
2023-02-19T13:43:57.229Z,55.21
2023-02-19T13:46:28.337Z,52.08
2023-02-19T13:49:31.248Z,52.19
2023-02-19T13:52:04.031Z,52.09
2023-02-19T13:54:33.768Z,52.06
2023-02-19T13:57:36.825Z,51.69
2023-02-19T14:00:43.282Z,48.52
2023-02-19T14:03:30.863Z,50.80
2023-02-19T14:06:06.021Z,50.04
2023-02-19T14:08:57.219Z,51.82
2023-02-19T14:12:05.287Z,52.13
2023-02-19T14:14:38.750Z,52.51
2023-02-19T14:17:39.012Z,56.76
2023-02-19T14:20:42.458Z,54.01
2023-02-19T14:23:17.171Z,51.81
2023-02-19T14:25:52.678Z,52.02
2023-02-19T14:28:53.166Z,55.08
2023-02-19T14:31:32.368Z,52.73
2023-02-19T14:34:05.966Z,60.09
2023-02-19T14:36:44.198Z,53.55
2023-02-19T14:39:19.646Z,51.64
2023-02-19T14:41:50.928Z,51.35
2023-02-19T14:44:23.196Z,51.40
2023-02-19T14:46:59.695Z,52.11
2023-02-19T14:49:32.231Z,54.48
2023-02-19T14:52:05.277Z,52.77
2023-02-19T14:54:39.167Z,54.18
2023-02-19T14:57:14.239Z,53.99
2023-02-19T14:59:53.364Z,51.19
2023-02-19T15:02:25.998Z,52.40
2023-02-19T15:04:54.839Z,53.48
2023-02-19T15:07:29.802Z,53.28
2023-02-19T15:10:04.938Z,53.43
2023-02-19T15:12:38.422Z,53.84
2023-02-19T15:15:09.310Z,52.87
2023-02-19T15:17:44.727Z,53.90
2023-02-19T15:20:20.491Z,55.31
2023-02-19T15:22:49.460Z,52.06
2023-02-19T15:25:20.741Z,54.76
2023-02-19T15:27:53.262Z,52.11
2023-02-19T15:30:24.647Z,51.08
2023-02-19T15:32:59.823Z,52.94
2023-02-19T15:35:30.423Z,49.78
2023-02-19T15:37:58.817Z,50.83
2023-02-19T15:40:30.996Z,50.74
2023-02-19T15:43:00.633Z,50.82
2023-02-19T15:45:32.727Z,50.39
2023-02-19T15:48:05.983Z,50.53
2023-02-19T15:50:35.806Z,49.32
2023-02-19T15:53:07.176Z,50.36
2023-02-19T15:55:37.704Z,49.96
2023-02-19T15:58:10.272Z,50.70
2023-02-19T16:00:43.605Z,50.63
2023-02-19T16:03:19.877Z,50.89
2023-02-19T16:06:00.616Z,51.13
2023-02-19T16:08:31.729Z,51.97
2023-02-19T16:11:02.736Z,51.26
2023-02-19T16:13:34.445Z,51.75
2023-02-19T16:16:16.072Z,52.64
2023-02-19T16:18:50.209Z,52.47
2023-02-19T16:21:22.843Z,53.02
2023-02-19T16:23:54.550Z,53.29
2023-02-19T16:26:25.283Z,52.85
2023-02-19T16:28:54.642Z,53.12
2023-02-19T16:31:26.601Z,53.61
2023-02-19T16:34:18.257Z,53.58
2023-02-19T16:36:51.718Z,54.17
2023-02-19T16:39:25.708Z,54.36
2023-02-19T16:42:19.489Z,54.19
2023-02-19T16:44:51.497Z,54.31
2023-02-19T16:47:39.687Z,54.59
2023-02-19T16:50:17.133Z,55.27
2023-02-19T16:52:55.338Z,55.34
2023-02-19T16:55:24.184Z,55.91
2023-02-19T16:57:52.114Z,56.23
2023-02-19T17:00:23.029Z,56.38
2023-02-19T17:02:55.231Z,57.08
2023-02-19T17:05:28.873Z,57.14
2023-02-19T17:07:58.949Z,57.42
2023-02-19T17:10:29.481Z,57.30
2023-02-19T17:12:59.241Z,57.40
2023-02-19T17:15:30.311Z,57.57
2023-02-19T17:18:00.776Z,57.71
2023-02-19T17:20:31.838Z,57.55
2023-02-19T17:23:00.829Z,57.36
2023-02-19T17:25:29.568Z,57.87
2023-02-19T17:27:59.585Z,57.99
2023-02-19T17:30:31.049Z,57.91
2023-02-19T17:33:03.243Z,58.45
2023-02-19T17:35:32.746Z,58.04
2023-02-19T17:38:00.720Z,58.30
2023-02-19T17:40:33.424Z,58.55
2023-02-19T17:43:03.059Z,58.78
2023-02-19T17:45:32.398Z,58.58
2023-02-19T17:48:01.110Z,59.33
2023-02-19T17:50:30.589Z,59.38
2023-02-19T17:53:00.031Z,59.36
2023-02-19T17:55:28.461Z,58.89
2023-02-19T17:57:56.424Z,59.12
2023-02-19T18:00:29.238Z,59.44
2023-02-19T18:02:59.882Z,59.50
2023-02-19T18:05:29.340Z,59.66
2023-02-19T18:07:57.724Z,59.96
2023-02-19T18:10:27.286Z,60.35
2023-02-19T18:12:55.449Z,60.10
2023-02-19T18:15:27.374Z,60.09
2023-02-19T18:18:00.118Z,60.58
2023-02-19T18:20:31.260Z,60.89
2023-02-19T18:23:00.191Z,61.13
2023-02-19T18:25:29.636Z,60.57
2023-02-19T18:28:00.333Z,60.67
2023-02-19T18:30:30.149Z,60.46
2023-02-19T18:32:58.714Z,60.39
2023-02-19T18:35:27.466Z,61.45
2023-02-19T18:37:56.385Z,61.35
2023-02-19T18:40:26.548Z,62.09
2023-02-19T18:42:56.887Z,61.47
2023-02-19T18:45:24.824Z,61.85
2023-02-19T18:47:54.726Z,61.54
2023-02-19T18:50:22.701Z,61.40
2023-02-19T18:52:50.580Z,60.94
2023-02-19T18:55:19.690Z,61.40
2023-02-19T18:57:49.933Z,61.60
2023-02-19T19:00:22.663Z,62.05
2023-02-19T19:02:54.138Z,62.03
2023-02-19T19:05:23.163Z,61.73
2023-02-19T19:07:53.459Z,62.31
2023-02-19T19:10:21.736Z,62.22
2023-02-19T19:12:51.265Z,62.58
2023-02-19T19:15:22.199Z,62.48
2023-02-19T19:17:51.840Z,62.97
2023-02-19T19:20:23.768Z,63.01
2023-02-19T19:22:52.509Z,63.33
2023-02-19T19:25:23.276Z,63.81
2023-02-19T19:27:52.468Z,63.79
2023-02-19T19:30:24.162Z,63.52
2023-02-19T19:32:52.743Z,63.79
2023-02-19T19:35:21.822Z,63.93
2023-02-19T19:37:49.938Z,64.20
2023-02-19T19:40:18.412Z,64.38
2023-02-19T19:42:48.362Z,64.63
2023-02-19T19:45:17.271Z,64.64
2023-02-19T19:47:48.662Z,64.92
2023-02-19T19:50:18.225Z,65.04
2023-02-19T19:52:46.744Z,64.85
2023-02-19T19:55:16.038Z,64.61
2023-02-19T19:57:45.564Z,64.73
2023-02-19T20:00:17.907Z,64.62
2023-02-19T20:02:49.475Z,64.53
2023-02-19T20:05:19.420Z,64.65
2023-02-19T20:07:49.540Z,64.83
2023-02-19T20:10:20.451Z,64.88
2023-02-19T20:12:50.351Z,65.10
2023-02-19T20:15:21.945Z,65.55
2023-02-19T20:17:56.672Z,65.51
2023-02-19T20:20:24.698Z,65.88
2023-02-19T20:22:54.789Z,66.00
2023-02-19T20:25:24.037Z,65.80
2023-02-19T20:27:53.782Z,66.07
2023-02-19T20:30:23.688Z,66.37
2023-02-19T20:32:53.417Z,66.31
2023-02-19T20:35:22.156Z,66.27
2023-02-19T20:37:50.057Z,66.58
2023-02-19T20:40:20.765Z,66.84
2023-02-19T20:42:50.519Z,66.89
2023-02-19T20:45:18.920Z,67.59
2023-02-19T20:47:48.924Z,67.43
2023-02-19T20:50:20.261Z,67.48
2023-02-19T20:52:49.233Z,67.86
2023-02-19T20:55:18.132Z,68.25
2023-02-19T20:57:47.788Z,68.37
2023-02-19T21:00:17.058Z,68.27
2023-02-19T21:02:45.763Z,68.39
2023-02-19T21:05:14.310Z,68.04
2023-02-19T21:07:45.044Z,68.17
2023-02-19T21:10:14.889Z,68.62
2023-02-19T21:12:44.508Z,68.08
2023-02-19T21:15:14.792Z,68.87
2023-02-19T21:17:47.148Z,68.48
2023-02-19T21:20:17.838Z,68.97
2023-02-19T21:22:47.414Z,68.90
2023-02-19T21:25:17.000Z,69.00
2023-02-19T21:27:45.604Z,69.60
2023-02-19T21:30:14.161Z,69.51
2023-02-19T21:32:42.373Z,69.51
2023-02-19T21:35:11.481Z,69.81
2023-02-19T21:37:43.071Z,70.24
2023-02-19T21:40:17.189Z,70.47
2023-02-19T21:42:47.191Z,70.60
2023-02-19T21:45:18.434Z,70.54
2023-02-19T21:47:47.932Z,71.00
2023-02-19T21:50:17.286Z,70.93
2023-02-19T21:52:45.523Z,70.88
2023-02-19T21:55:17.108Z,70.74
2023-02-19T21:57:45.090Z,71.11
2023-02-19T22:00:17.955Z,71.09
2023-02-19T22:02:48.180Z,71.08
2023-02-19T22:05:18.841Z,71.45
2023-02-19T22:07:50.037Z,71.70
2023-02-19T22:10:23.963Z,71.61
2023-02-19T22:12:52.073Z,71.63
2023-02-19T22:15:20.445Z,71.62
2023-02-19T22:17:50.583Z,71.86
2023-02-19T22:20:19.911Z,71.59
2023-02-19T22:22:49.801Z,71.93
2023-02-19T22:25:18.208Z,71.95
2023-02-19T22:27:48.804Z,72.23
2023-02-19T22:30:17.362Z,72.62
2023-02-19T22:32:46.672Z,72.52
2023-02-19T22:35:16.007Z,72.81
2023-02-19T22:37:44.660Z,73.37
2023-02-19T22:40:14.888Z,73.57
2023-02-19T22:42:45.397Z,73.73
2023-02-19T22:45:15.822Z,73.86
2023-02-19T22:47:44.649Z,74.01
2023-02-19T22:50:18.851Z,74.61
2023-02-19T22:52:49.131Z,74.10
2023-02-19T22:55:17.897Z,74.64
2023-02-19T22:57:46.220Z,74.75
2023-02-19T23:00:22.577Z,75.01
2023-02-19T23:02:51.804Z,75.14
2023-02-19T23:05:22.769Z,75.02
2023-02-19T23:07:52.356Z,74.66
2023-02-19T23:10:21.306Z,75.10
2023-02-19T23:12:52.160Z,74.94
2023-02-19T23:15:25.498Z,75.02
2023-02-19T23:17:54.971Z,75.07
2023-02-19T23:20:23.222Z,75.12
2023-02-19T23:22:51.485Z,75.10
2023-02-19T23:25:19.496Z,75.03
2023-02-19T23:27:50.945Z,75.36
2023-02-19T23:30:23.678Z,75.51
2023-02-19T23:32:52.019Z,75.43
2023-02-19T23:35:22.007Z,75.77
2023-02-19T23:37:49.915Z,75.82
2023-02-19T23:40:18.885Z,75.56
2023-02-19T23:42:47.821Z,76.24
2023-02-19T23:45:18.363Z,76.08
2023-02-19T23:47:49.431Z,76.24
2023-02-19T23:50:18.580Z,76.20
2023-02-19T23:52:46.794Z,76.72
2023-02-19T23:55:15.715Z,76.96
2023-02-19T23:57:46.904Z,76.92
